Time;durP1;ratioP1;P1;durP2;ratioP2;P2;SDS_P1;SDS_P2;PMS_P1;PMS_P2;Temp;Humidity;BMP_temperature;BMP_pressure;BME280_temperature;BME280_humidity;BME280_pressure;Samples;Min_cycle;Max_cycle;Signal;HPM_P1;HPM_P2
2021/03/16 00:00:21;;;;;;;;;;;;;;;4.34;96.35;101508.59;5007941;28;19917;-82
2021/03/16 00:02:46;;;;;;;;;;;;;;;4.33;96.28;101508.72;5012650;28;19984;-83
2021/03/16 00:05:11;;;;;;;;;;;;;;;4.36;96.53;101514.66;5021611;28;19921;-84
2021/03/16 00:07:37;;;;;;;;;;;;;;;4.38;96.93;101514.56;5014998;28;19928;-82
2021/03/16 00:10:02;;;;;;;;;;;;;;;4.35;96.30;101523.59;5032584;28;19976;-82
2021/03/16 00:12:28;;;;;;;;;;;;;;;4.35;96.88;101522.75;5030247;28;19932;-80
2021/03/16 00:14:53;;;;;;;;;;;;;;;4.40;97.36;101523.25;5008234;28;19996;-83
2021/03/16 00:17:18;;;;;;;;;;;;;;;4.40;96.98;101523.25;5022165;28;20387;-83
2021/03/16 00:19:45;;;;;;;;;;;;;;;4.42;96.65;101529.31;5023611;28;19917;-82
2021/03/16 00:22:10;;;;;;;;;;;;;;;4.44;96.15;101522.94;5040456;28;20033;-85
2021/03/16 00:24:35;;;;;;;;;;;;;;;4.46;96.21;101530.81;5015249;28;20371;-84
2021/03/16 00:27:00;;;;;;;;;;;;;;;4.46;96.45;101538.78;5007769;28;19925;-81
2021/03/16 00:29:26;;;;;;;;;;;;;;;4.48;96.52;101540.38;5021054;28;19917;-83
2021/03/16 00:31:51;;;;;;;;;;;;;;;4.47;96.34;101551.13;5013513;28;19921;-81
2021/03/16 00:34:16;;;;;;;;;;;;;;;4.47;96.35;101551.13;5020775;28;19969;-82
2021/03/16 00:36:41;;;;;;;;;;;;;;;4.50;96.27;101553.56;5023144;28;20307;-85
2021/03/16 00:39:07;;;;;;;;;;;;;;;4.48;96.59;101555.47;5031430;28;19917;-82
2021/03/16 00:41:32;;;;;;;;;;;;;;;4.47;96.46;101553.78;5044902;28;19972;-85
2021/03/16 00:43:58;;;;;;;;;;;;;;;4.47;96.71;101556.44;5020125;28;19923;-84
2021/03/16 00:46:23;;;;;;;;;;;;;;;4.46;96.74;101552.06;5012780;28;19929;-84
2021/03/16 00:48:48;;;;;;;;;;;;;;;4.43;96.73;101560.25;5016466;28;19924;-82
2021/03/16 00:51:14;;;;;;;;;;;;;;;4.42;97.11;101554.09;5007521;28;19933;-84
2021/03/16 00:53:39;;;;;;;;;;;;;;;4.43;96.22;101562.91;5004604;28;19945;-85
2021/03/16 00:56:04;;;;;;;;;;;;;;;4.46;96.63;101560.03;5003142;28;19957;-83
2021/03/16 00:58:30;;;;;;;;;;;;;;;4.44;95.98;101568.13;5018281;28;19925;-82
2021/03/16 01:00:56;;;;;;;;;;;;;;;4.45;95.38;101574.28;5025242;28;19920;-82
2021/03/16 01:03:21;;;;;;;;;;;;;;;4.50;96.42;101574.84;5025993;28;19917;-83
2021/03/16 01:05:50;;;;;;;;;;;;;;;4.47;95.99;101572.38;5029526;28;19971;-82
2021/03/16 01:08:16;;;;;;;;;;;;;;;4.49;95.79;101581.13;5028599;28;19924;-85
2021/03/16 01:10:41;;;;;;;;;;;;;;;4.48;95.71;101582.91;5044986;28;19929;-84
2021/03/16 01:13:06;;;;;;;;;;;;;;;4.50;96.57;101574.84;5041733;28;19948;-84
2021/03/16 01:15:32;;;;;;;;;;;;;;;4.49;96.39;101581.13;5041871;28;19987;-83
2021/03/16 01:17:57;;;;;;;;;;;;;;;4.49;96.15;101578.47;5004398;28;20292;-85
2021/03/16 01:20:24;;;;;;;;;;;;;;;4.44;95.27;101576.09;5007812;28;20291;-85
2021/03/16 01:22:49;;;;;;;;;;;;;;;4.48;95.80;101574.94;5009221;28;19918;-81
2021/03/16 01:25:14;;;;;;;;;;;;;;;4.48;95.82;101576.75;5011802;28;19932;-82
2021/03/16 01:27:39;;;;;;;;;;;;;;;4.46;95.93;101575.97;5030569;28;19917;-81
2021/03/16 01:30:06;;;;;;;;;;;;;;;4.46;94.09;101584.84;5027612;28;20016;-81
2021/03/16 01:32:31;;;;;;;;;;;;;;;4.51;94.74;101579.19;5028917;28;19921;-81
2021/03/16 01:34:56;;;;;;;;;;;;;;;4.51;95.06;101585.34;5026477;28;20397;-82
2021/03/16 01:37:22;;;;;;;;;;;;;;;4.53;94.86;101582.59;5008795;28;20007;-86
2021/03/16 01:39:48;;;;;;;;;;;;;;;4.52;95.57;101587.06;5046133;28;20273;-84
2021/03/16 01:42:14;;;;;;;;;;;;;;;4.50;95.51;101591.63;5036917;28;19971;-85
2021/03/16 01:44:42;;;;;;;;;;;;;;;4.49;95.48;101575.81;5036704;28;19921;-80
2021/03/16 01:47:09;;;;;;;;;;;;;;;4.51;96.06;101584.50;5029293;28;19917;-83
2021/03/16 01:49:34;;;;;;;;;;;;;;;4.48;95.31;101590.03;5023174;28;19921;-83
2021/03/16 01:52:02;;;;;;;;;;;;;;;4.52;95.90;101594.19;5028572;28;19940;-86
2021/03/16 01:54:27;;;;;;;;;;;;;;;4.52;95.60;101592.38;5022589;28;19925;-82
2021/03/16 01:56:53;;;;;;;;;;;;;;;4.53;95.30;101593.22;5029055;28;20458;-83
2021/03/16 01:59:18;;;;;;;;;;;;;;;4.55;95.54;101596.63;5026284;28;19929;-80
2021/03/16 02:01:44;;;;;;;;;;;;;;;4.56;95.30;101593.00;5028654;28;19924;-82
2021/03/16 02:04:10;;;;;;;;;;;;;;;4.55;95.51;101590.47;5025989;28;19927;-81
2021/03/16 02:06:41;;;;;;;;;;;;;;;4.56;96.09;101597.47;5027385;28;19924;-85
2021/03/16 02:09:11;;;;;;;;;;;;;;;4.55;95.99;101590.47;5024088;28;20399;-82
2021/03/16 02:11:43;;;;;;;;;;;;;;;4.56;96.15;101586.84;5026105;28;19928;-84
2021/03/16 02:14:11;;;;;;;;;;;;;;;4.52;95.54;101596.84;5024340;28;20371;-84
2021/03/16 02:16:37;;;;;;;;;;;;;;;4.53;95.66;101596.72;5022284;28;19917;-83
2021/03/16 02:19:06;;;;;;;;;;;;;;;4.55;96.23;101596.63;5027832;28;20024;-82
2021/03/16 02:21:33;;;;;;;;;;;;;;;4.53;96.08;101598.53;5028725;28;19967;-84
2021/03/16 02:24:03;;;;;;;;;;;;;;;4.55;96.20;101596.63;5026411;28;19956;-82
2021/03/16 02:26:33;;;;;;;;;;;;;;;4.56;96.22;101598.34;5026591;28;19921;-83
2021/03/16 02:29:11;;;;;;;;;;;;;;;4.59;95.95;101602.59;5025870;28;19940;-80
2021/03/16 02:31:37;;;;;;;;;;;;;;;4.59;96.39;101603.44;5009335;28;19972;-84
2021/03/16 02:34:03;;;;;;;;;;;;;;;4.60;96.50;101610.44;5005707;28;19932;-84
2021/03/16 02:36:29;;;;;;;;;;;;;;;4.59;97.31;101603.44;5023594;28;19921;-84
2021/03/16 02:38:55;;;;;;;;;;;;;;;4.61;97.44;101611.31;5021946;28;20294;-80
2021/03/16 02:41:22;;;;;;;;;;;;;;;4.60;97.95;101615.75;5027851;28;19925;-86
2021/03/16 02:43:47;;;;;;;;;;;;;;;4.60;98.42;101622.88;5023091;28;19970;-82
2021/03/16 02:46:13;;;;;;;;;;;;;;;4.61;98.75;101617.47;5023161;28;19929;-83
2021/03/16 02:48:39;;;;;;;;;;;;;;;4.60;98.99;101623.72;5028745;28;19917;-82
2021/03/16 02:51:06;;;;;;;;;;;;;;;4.61;99.09;101627.28;5026167;28;20446;-83
2021/03/16 02:53:33;;;;;;;;;;;;;;;4.59;99.25;101624.69;5010694;28;20343;-83
2021/03/16 02:55:59;;;;;;;;;;;;;;;4.58;98.99;101633.66;5025114;28;19975;-81
2021/03/16 02:58:25;;;;;;;;;;;;;;;4.60;98.98;101631.72;5026193;28;20007;-85
2021/03/16 03:00:51;;;;;;;;;;;;;;;4.60;99.03;101630.88;5025298;28;20012;-84
2021/03/16 03:03:16;;;;;;;;;;;;;;;4.58;99.04;101628.31;5020486;28;20538;-80
2021/03/16 03:05:42;;;;;;;;;;;;;;;4.56;99.25;101635.53;5009371;28;19974;-85
2021/03/16 03:08:09;;;;;;;;;;;;;;;4.53;99.40;101630.44;5022394;28;19917;-81
2021/03/16 03:10:34;;;;;;;;;;;;;;;4.53;99.67;101636.59;5026552;28;20003;-81
2021/03/16 03:12:59;;;;;;;;;;;;;;;4.51;99.82;101632.34;5027753;28;20016;-83
2021/03/16 03:15:25;;;;;;;;;;;;;;;4.50;99.90;101636.81;5015717;28;19921;-84
2021/03/16 03:17:50;;;;;;;;;;;;;;;4.49;100.00;101642.25;5006308;28;19951;-80
2021/03/16 03:20:15;;;;;;;;;;;;;;;4.49;99.70;101636.94;5004876;28;19968;-84
2021/03/16 03:22:44;;;;;;;;;;;;;;;4.51;99.81;101650.94;5004483;28;20301;-81
2021/03/16 03:25:15;;;;;;;;;;;;;;;4.51;99.33;101643.81;5002315;28;19925;-81
2021/03/16 03:27:44;;;;;;;;;;;;;;;4.49;99.30;101647.56;5023059;28;19924;-80
2021/03/16 03:30:10;;;;;;;;;;;;;;;4.49;99.18;101660.84;5021861;28;20375;-84
2021/03/16 03:32:37;;;;;;;;;;;;;;;4.50;99.35;101641.28;5028901;28;19917;-85
2021/03/16 03:35:02;;;;;;;;;;;;;;;4.49;99.44;101658.19;5027632;28;19992;-82
2021/03/16 03:37:28;;;;;;;;;;;;;;;4.46;98.84;101669.00;5022055;28;20340;-84
2021/03/16 03:39:54;;;;;;;;;;;;;;;4.48;98.88;101665.28;5020605;28;19929;-82
2021/03/16 03:42:20;;;;;;;;;;;;;;;4.47;98.34;101657.44;5037054;28;19921;-81
2021/03/16 03:44:46;;;;;;;;;;;;;;;4.50;97.12;101662.53;5022160;28;20454;-84
2021/03/16 03:47:12;;;;;;;;;;;;;;;4.53;95.02;101672.97;5022760;28;19937;-83
2021/03/16 03:49:38;;;;;;;;;;;;;;;4.53;94.27;101676.47;5036892;28;19944;-85
2021/03/16 03:52:04;;;;;;;;;;;;;;;4.57;94.52;101663.81;5019164;28;20442;-84
2021/03/16 03:54:30;;;;;;;;;;;;;;;4.59;93.83;101674.38;5036906;28;19932;-82
2021/03/16 03:56:56;;;;;;;;;;;;;;;4.58;93.01;101672.69;5028703;28;20450;-80
2021/03/16 03:59:22;;;;;;;;;;;;;;;4.62;93.26;101679.47;4994703;28;19926;-84
2021/03/16 04:01:49;;;;;;;;;;;;;;;4.61;93.38;101675.97;5007399;28;19964;-82
2021/03/16 04:04:16;;;;;;;;;;;;;;;4.59;93.66;101679.69;4995546;28;19921;-84
2021/03/16 04:06:44;;;;;;;;;;;;;;;4.59;93.83;101680.53;5031011;28;19995;-81
2021/03/16 04:09:10;;;;;;;;;;;;;;;4.59;94.31;101683.19;5019060;28;19921;-81
2021/03/16 04:11:35;;;;;;;;;;;;;;;4.60;94.76;101679.56;5026588;28;19925;-80
2021/03/16 04:14:01;;;;;;;;;;;;;;;4.59;95.06;101688.50;5023873;28;20020;-81
2021/03/16 04:16:27;;;;;;;;;;;;;;;4.59;95.67;101691.16;5011309;28;20016;-81
2021/03/16 04:18:53;;;;;;;;;;;;;;;4.58;96.15;101692.13;5006216;28;19940;-84
2021/03/16 04:21:20;;;;;;;;;;;;;;;4.58;96.21;101689.47;5003639;28;19936;-81
2021/03/16 04:23:45;;;;;;;;;;;;;;;4.53;96.53;101694.25;5002635;28;21975;-82
2021/03/16 04:26:11;;;;;;;;;;;;;;;4.54;97.01;101695.94;5022291;28;19921;-83
2021/03/16 04:28:37;;;;;;;;;;;;;;;4.55;97.60;101695.00;5022745;28;19975;-83
2021/03/16 04:31:09;;;;;;;;;;;;;;;4.57;97.89;101695.72;5024789;28;19929;-80
2021/03/16 04:33:36;;;;;;;;;;;;;;;4.58;97.89;101705.41;5040566;28;19967;-82
2021/03/16 04:36:02;;;;;;;;;;;;;;;4.56;98.36;101699.34;5020090;28;19943;-80
2021/03/16 04:38:27;;;;;;;;;;;;;;;4.57;98.26;101703.69;5023464;28;19929;-83
2021/03/16 04:40:52;;;;;;;;;;;;;;;4.56;98.49;101699.34;5026631;28;19932;-83
2021/03/16 04:43:18;;;;;;;;;;;;;;;4.55;98.59;101702.97;5023284;28;20276;-82
2021/03/16 04:45:43;;;;;;;;;;;;;;;4.56;98.77;101703.81;5022901;28;20014;-82
2021/03/16 04:48:08;;;;;;;;;;;;;;;4.56;98.89;101702.00;5040745;28;20379;-84
2021/03/16 04:50:33;;;;;;;;;;;;;;;4.57;98.59;101700.19;5025777;28;20023;-82
2021/03/16 04:52:59;;;;;;;;;;;;;;;4.57;98.39;101706.34;5040666;28;19925;-82
2021/03/16 04:55:24;;;;;;;;;;;;;;;4.58;98.41;101707.22;5019411;28;19921;-82
2021/03/16 04:57:52;;;;;;;;;;;;;;;4.56;98.61;101709.97;5024164;28;19952;-79
2021/03/16 05:00:17;;;;;;;;;;;;;;;4.57;98.48;101702.84;5023704;28;20011;-85
2021/03/16 05:02:42;;;;;;;;;;;;;;;4.56;98.61;101709.97;5025994;28;20012;-83
2021/03/16 05:05:08;;;;;;;;;;;;;;;4.59;98.35;101714.25;5023945;28;19921;-83
2021/03/16 05:07:33;;;;;;;;;;;;;;;4.58;98.73;101718.72;5027693;28;20433;-82
2021/03/16 05:09:59;;;;;;;;;;;;;;;4.54;98.84;101722.50;5027544;28;20012;-81
2021/03/16 05:12:24;;;;;;;;;;;;;;;4.53;98.71;101721.66;5021376;28;19925;-83
2021/03/16 05:14:50;;;;;;;;;;;;;;;4.54;98.95;101722.50;5024631;28;19921;-83
2021/03/16 05:17:16;;;;;;;;;;;;;;;4.53;98.83;101732.31;5024219;28;20002;-83
2021/03/16 05:19:41;;;;;;;;;;;;;;;4.55;98.98;101737.53;5018192;28;20036;-82
2021/03/16 05:22:07;;;;;;;;;;;;;;;4.55;98.68;101734.88;5021758;28;20016;-85
2021/03/16 05:24:32;;;;;;;;;;;;;;;4.52;98.36;101735.91;5024556;28;19921;-84
2021/03/16 05:26:57;;;;;;;;;;;;;;;4.54;98.61;101741.13;5022529;28;20455;-83
2021/03/16 05:29:23;;;;;;;;;;;;;;;4.52;98.26;101737.72;5022029;28;19970;-83
2021/03/16 05:31:48;;;;;;;;;;;;;;;4.53;98.05;101745.59;5037964;28;20307;-85
2021/03/16 05:34:13;;;;;;;;;;;;;;;4.53;97.98;101744.75;5004697;28;19980;-85
2021/03/16 05:36:39;;;;;;;;;;;;;;;4.52;98.15;101751.03;5020258;28;20038;-81
2021/03/16 05:39:05;;;;;;;;;;;;;;;4.53;97.91;101752.72;5022588;28;20003;-86
2021/03/16 05:41:30;;;;;;;;;;;;;;;4.51;97.68;101752.81;5027187;28;19921;-85
2021/03/16 05:43:56;;;;;;;;;;;;;;;4.53;97.95;101755.38;5030199;28;20456;-84
2021/03/16 05:46:22;;;;;;;;;;;;;;;4.51;97.71;101755.47;5002413;28;19921;-85
2021/03/16 05:48:48;;;;;;;;;;;;;;;4.50;97.67;101747.59;4999725;28;19925;-83
2021/03/16 05:51:14;;;;;;;;;;;;;;;4.49;97.28;101753.88;5011682;28;19925;-85
2021/03/16 05:53:39;;;;;;;;;;;;;;;4.48;96.91;101757.47;5024349;28;20338;-82
2021/03/16 05:56:05;;;;;;;;;;;;;;;4.48;96.82;101757.47;5029305;28;19928;-81
2021/03/16 05:58:30;;;;;;;;;;;;;;;4.51;96.53;101754.63;5027543;28;19983;-80
2021/03/16 06:00:56;;;;;;;;;;;;;;;4.49;96.41;101759.22;5020369;28;19945;-84
2021/03/16 06:03:21;;;;;;;;;;;;;;;4.51;96.94;101754.63;4990950;28;19922;-82
2021/03/16 06:05:48;;;;;;;;;;;;;;;4.51;96.51;101759.94;5005379;28;20397;-84
2021/03/16 06:08:14;;;;;;;;;;;;;;;4.53;96.28;101763.34;5008262;28;20046;-80
2021/03/16 06:10:39;;;;;;;;;;;;;;;4.52;96.16;101769.63;5005963;28;19921;-80
2021/03/16 06:13:12;;;;;;;;;;;;;;;4.52;96.20;101772.28;4993501;28;20285;-80
2021/03/16 06:15:37;;;;;;;;;;;;;;;4.54;96.80;101770.38;5019501;28;19928;-83
2021/03/16 06:18:03;;;;;;;;;;;;;;;4.52;96.81;101761.66;5020363;28;20016;-84
2021/03/16 06:20:29;;;;;;;;;;;;;;;4.53;96.37;101768.66;5024241;28;20287;-82
2021/03/16 06:23:04;;;;;;;;;;;;;;;4.54;96.71;101767.69;5023167;28;20044;-83
2021/03/16 06:25:31;;;;;;;;;;;;;;;4.52;96.36;101764.31;5022251;28;19929;-84
2021/03/16 06:28:15;;;;;;;;;;;;;;;4.52;96.63;101770.47;5039383;28;19925;-83
2021/03/16 06:30:41;;;;;;;;;;;;;;;4.54;96.62;101770.38;5047093;28;19932;-81
2021/03/16 06:33:22;;;;;;;;;;;;;;;4.57;96.96;101775.47;5023890;28;19921;-83
2021/03/16 06:36:05;;;;;;;;;;;;;;;4.55;96.88;101782.72;5024255;28;19929;-84
2021/03/16 06:38:31;;;;;;;;;;;;;;;4.57;96.64;101786.09;5025614;28;20019;-80
2021/03/16 06:41:07;;;;;;;;;;;;;;;4.55;96.48;101788.03;5007633;28;20348;-84
2021/03/16 06:43:32;;;;;;;;;;;;;;;4.55;96.12;101785.38;5027057;28;19927;-80
2021/03/16 06:45:58;;;;;;;;;;;;;;;4.58;96.55;101789.66;5021071;28;19921;-82
2021/03/16 06:48:24;;;;;;;;;;;;;;;4.57;96.13;101791.41;5043029;28;19929;-85
2021/03/16 06:50:50;;;;;;;;;;;;;;;4.58;96.25;101794.97;5039813;28;19952;-82
2021/03/16 06:53:21;;;;;;;;;;;;;;;4.61;95.83;101790.28;5024724;28;20319;-84
2021/03/16 06:55:53;;;;;;;;;;;;;;;4.64;95.90;101795.41;5021573;28;19917;-82
2021/03/16 06:58:23;;;;;;;;;;;;;;;4.66;96.56;101801.47;5003195;28;19979;-83
2021/03/16 07:00:48;;;;;;;;;;;;;;;4.67;95.99;101797.84;5019519;28;19921;-81
2021/03/16 07:03:14;;;;;;;;;;;;;;;4.70;96.30;101796.81;5021438;28;20445;-81
2021/03/16 07:05:39;;;;;;;;;;;;;;;4.67;95.68;101794.34;5036271;28;19929;-84
2021/03/16 07:08:06;;;;;;;;;;;;;;;4.71;95.48;101794.03;5008486;28;20394;-82
2021/03/16 07:10:35;;;;;;;;;;;;;;;4.74;95.41;101798.28;4996372;28;19948;-81
2021/03/16 07:13:00;;;;;;;;;;;;;;;4.75;94.76;101797.34;5032568;28;20404;-82
2021/03/16 07:15:27;;;;;;;;;;;;;;;4.79;94.82;101792.69;5009975;28;20001;-81
2021/03/16 07:17:53;;;;;;;;;;;;;;;4.81;94.15;101788.97;5021343;28;19921;-80
2021/03/16 07:20:19;;;;;;;;;;;;;;;4.86;94.17;101791.28;5006444;28;19928;-83
2021/03/16 07:22:50;;;;;;;;;;;;;;;4.92;94.05;101796.19;5021520;28;20274;-82
2021/03/16 07:25:15;;;;;;;;;;;;;;;4.94;93.60;101800.47;5020274;28;19925;-81
2021/03/16 07:27:41;;;;;;;;;;;;;;;4.98;94.03;101803.78;5021123;28;19943;-81
2021/03/16 07:30:07;;;;;;;;;;;;;;;5.03;94.22;101814.97;5021863;28;20019;-83
2021/03/16 07:32:33;;;;;;;;;;;;;;;5.03;93.95;101801.66;5030304;28;19936;-81
2021/03/16 07:35:00;;;;;;;;;;;;;;;5.07;94.11;101813.81;5018661;28;19975;-84
2021/03/16 07:37:26;;;;;;;;;;;;;;;5.08;94.37;101814.66;5021382;28;19928;-83
2021/03/16 07:40:01;;;;;;;;;;;;;;;5.09;94.80;101811.91;5020481;28;19921;-81
2021/03/16 07:42:27;;;;;;;;;;;;;;;5.11;94.64;101809.97;4992626;28;19928;-80
2021/03/16 07:44:53;;;;;;;;;;;;;;;5.10;95.07;101813.59;5014129;28;19929;-81
2021/03/16 07:47:18;;;;;;;;;;;;;;;5.11;95.88;101820.63;5013712;28;19925;-83
2021/03/16 07:49:44;;;;;;;;;;;;;;;5.06;96.05;101822.72;5024118;28;20395;-81
2021/03/16 07:52:19;;;;;;;;;;;;;;;5.11;96.47;101828.59;5021365;28;19984;-82
2021/03/16 07:54:48;;;;;;;;;;;;;;;5.13;96.37;101834.69;5030464;28;19922;-82
2021/03/16 07:57:24;;;;;;;;;;;;;;;5.17;96.51;101833.50;5022433;28;19928;-82
2021/03/16 07:59:56;;;;;;;;;;;;;;;5.25;96.25;101832.16;5029413;28;19960;-84
2021/03/16 08:02:26;;;;;;;;;;;;;;;5.35;96.38;101836.75;5025634;28;19924;-80
2021/03/16 08:04:51;;;;;;;;;;;;;;;5.42;95.85;101839.81;5029719;28;19917;-81
2021/03/16 08:07:20;;;;;;;;;;;;;;;5.43;95.77;101839.72;5022503;28;19918;-85
2021/03/16 08:09:46;;;;;;;;;;;;;;;5.31;92.33;101837.03;5027856;28;19944;-81
2021/03/16 08:12:40;;;;;;;;;;;;;;;5.31;93.65;101842.38;5046453;28;20003;-84
2021/03/16 08:15:10;;;;;;;;;;;;;;;5.29;93.54;101849.59;5010193;28;19922;-83
2021/03/16 08:17:38;;;;;;;;;;;;;;;5.29;93.50;101841.63;5039186;28;19924;-82
2021/03/16 08:20:04;;;;;;;;;;;;;;;5.25;93.39;101845.44;5030094;28;19921;-80
2021/03/16 08:22:29;;;;;;;;;;;;;;;5.27;94.44;101848.88;5027075;28;21951;-82
2021/03/16 08:24:59;;;;;;;;;;;;;;;5.26;94.54;101855.13;5008130;28;19918;-81
2021/03/16 08:27:25;;;;;;;;;;;;;;;5.34;95.15;101851.00;5016693;28;19917;-82
2021/03/16 08:29:51;;;;;;;;;;;;;;;5.45;94.77;101852.09;5021584;28;20368;-81
2021/03/16 08:32:18;;;;;;;;;;;;;;;5.52;94.77;101856.84;5002916;28;19924;-82
2021/03/16 08:34:44;;;;;;;;;;;;;;;5.58;94.62;101856.47;5021378;28;19932;-84
2021/03/16 08:37:21;;;;;;;;;;;;;;;5.63;93.61;101854.31;5013521;28;19989;-82
2021/03/16 08:39:47;;;;;;;;;;;;;;;5.64;92.87;101858.69;5012401;28;19925;-82
2021/03/16 08:42:15;;;;;;;;;;;;;;;5.62;92.40;101855.28;5045954;28;19928;-82
2021/03/16 08:44:41;;;;;;;;;;;;;;;5.66;92.04;101850.59;5043121;28;20390;-83
2021/03/16 08:47:08;;;;;;;;;;;;;;;5.73;91.97;101851.03;5024890;28;19918;-82
2021/03/16 08:49:36;;;;;;;;;;;;;;;5.81;91.26;101856.66;5028067;28;19943;-85
2021/03/16 08:52:02;;;;;;;;;;;;;;;5.85;90.54;101848.34;5046347;28;19998;-86
2021/03/16 08:54:28;;;;;;;;;;;;;;;5.87;89.49;101858.91;5042354;28;19929;-82
2021/03/16 08:56:53;;;;;;;;;;;;;;;5.91;90.32;101857.72;5028850;28;20280;-82
2021/03/16 08:59:20;;;;;;;;;;;;;;;5.96;90.64;101852.97;5036859;28;19928;-82
2021/03/16 09:01:46;;;;;;;;;;;;;;;6.03;90.44;101850.69;5018522;28;19917;-82
2021/03/16 09:04:12;;;;;;;;;;;;;;;6.12;89.54;101846.53;5028811;28;19944;-82
2021/03/16 09:06:37;;;;;;;;;;;;;;;6.07;88.48;101852.19;5040782;28;19917;-81
2021/03/16 09:09:03;;;;;;;;;;;;;;;6.12;88.46;101865.19;5025775;28;19926;-84
2021/03/16 09:11:29;;;;;;;;;;;;;;;6.16;87.96;101854.22;5025377;28;19921;-83
2021/03/16 09:14:05;;;;;;;;;;;;;;;6.18;85.60;101851.41;5024452;28;20269;-84
2021/03/16 09:16:30;;;;;;;;;;;;;;;6.26;85.63;101865.06;5018971;28;19921;-81
2021/03/16 09:18:55;;;;;;;;;;;;;;;6.26;82.71;101860.56;5010704;28;19974;-84
2021/03/16 09:21:21;;;;;;;;;;;;;;;6.37;83.33;101866.97;5028426;28;19918;-84
2021/03/16 09:23:46;;;;;;;;;;;;;;;6.34;82.81;101868.03;5028380;28;19921;-82
2021/03/16 09:26:11;;;;;;;;;;;;;;;6.37;83.92;101857.13;5010976;28;20016;-85
2021/03/16 09:28:37;;;;;;;;;;;;;;;6.38;84.58;101856.16;5029583;28;19924;-83
2021/03/16 09:31:02;;;;;;;;;;;;;;;6.37;83.31;101865.13;5009882;28;19925;-84
2021/03/16 09:33:27;;;;;;;;;;;;;;;6.45;84.97;101849.44;5008232;28;20426;-83
2021/03/16 09:35:56;;;;;;;;;;;;;;;6.51;84.73;101854.31;5026775;28;19932;-82
2021/03/16 09:38:21;;;;;;;;;;;;;;;6.51;82.39;101854.31;5026110;28;19917;-85
2021/03/16 09:40:47;;;;;;;;;;;;;;;6.61;82.97;101854.50;5020126;28;19917;-84
2021/03/16 09:43:19;;;;;;;;;;;;;;;6.72;82.95;101856.38;5026924;28;20111;-80
2021/03/16 09:45:58;;;;;;;;;;;;;;;6.74;81.65;101854.44;5028185;28;19917;-83
2021/03/16 09:48:23;;;;;;;;;;;;;;;6.74;81.22;101859.78;5026773;28;19927;-85
2021/03/16 09:50:49;;;;;;;;;;;;;;;6.74;80.68;101870.47;5040996;28;19921;-81
2021/03/16 09:53:15;;;;;;;;;;;;;;;6.84;81.91;101857.28;5024282;28;19960;-84
2021/03/16 09:55:41;;;;;;;;;;;;;;;6.84;81.48;101847.44;5008522;28;19922;-83
2021/03/16 09:58:06;;;;;;;;;;;;;;;6.95;81.23;101850.16;5006932;28;19917;-82
2021/03/16 10:00:32;;;;;;;;;;;;;;;7.03;81.55;101844.28;5008064;28;19928;-83
2021/03/16 10:03:04;;;;;;;;;;;;;;;6.98;80.52;101847.28;5003954;28;19918;-83
2021/03/16 10:05:29;;;;;;;;;;;;;;;6.99;80.50;101854.34;5032955;28;20393;-82
2021/03/16 10:07:55;;;;;;;;;;;;;;;7.01;81.62;101852.38;5001280;28;19924;-84
2021/03/16 10:10:21;;;;;;;;;;;;;;;7.09;82.23;101851.81;5007331;28;19936;-82
2021/03/16 10:13:19;;;;;;;;;;;;;;;7.07;80.83;101856.41;5032106;28;19930;-83
2021/03/16 10:15:44;;;;;;;;;;;;;;;7.09;82.45;101854.47;4940226;28;19925;-83
2021/03/16 10:18:15;;;;;;;;;;;;;;;6.96;80.39;101867.91;5004539;28;19922;-86
2021/03/16 10:20:50;;;;;;;;;;;;;;;6.94;82.80;101872.50;5037993;28;20000;-82
2021/03/16 10:23:19;;;;;;;;;;;;;;;6.84;84.08;101860.78;5019388;28;19932;-85
2021/03/16 10:25:53;;;;;;;;;;;;;;;6.72;84.08;101867.88;5038364;28;20275;-84
2021/03/16 10:28:19;;;;;;;;;;;;;;;6.66;86.84;101870.16;5019391;28;19921;-81
2021/03/16 10:30:45;;;;;;;;;;;;;;;6.31;90.05;101870.91;5022756;28;21979;-83
2021/03/16 10:33:11;;;;;;;;;;;;;;;6.02;92.81;101862.34;5022474;28;20372;-81
2021/03/16 10:35:38;;;;;;;;;;;;;;;5.74;95.00;101874.03;5023323;28;19921;-85
2021/03/16 10:38:06;;;;;;;;;;;;;;;5.51;95.72;101873.81;5023144;28;19929;-84
2021/03/16 10:40:32;;;;;;;;;;;;;;;5.34;96.86;101868.78;5021716;28;20012;-83
2021/03/16 10:42:58;;;;;;;;;;;;;;;5.32;98.59;101866.22;5017606;28;19932;-80
2021/03/16 10:45:23;;;;;;;;;;;;;;;5.30;100.00;101861.97;5023756;28;19925;-83
2021/03/16 10:47:51;;;;;;;;;;;;;;;5.34;100.00;101861.63;5025044;28;20396;-83
2021/03/16 10:50:16;;;;;;;;;;;;;;;5.43;100.00;101863.66;5017854;28;20054;-79
2021/03/16 10:52:41;;;;;;;;;;;;;;;5.49;100.00;101864.22;5022408;28;20379;-83
2021/03/16 10:55:07;;;;;;;;;;;;;;;5.77;100.00;101853.34;5023809;28;19922;-84
2021/03/16 10:57:33;;;;;;;;;;;;;;;5.98;100.00;101850.16;5019842;28;19961;-84
2021/03/16 10:59:59;;;;;;;;;;;;;;;5.99;99.92;101847.41;5022685;28;20371;-84
2021/03/16 11:02:25;;;;;;;;;;;;;;;6.18;100.00;101846.09;5023333;28;20003;-84
2021/03/16 11:04:50;;;;;;;;;;;;;;;6.27;97.90;101846.31;5019530;28;19922;-81
2021/03/16 11:07:16;;;;;;;;;;;;;;;6.38;95.83;101848.16;5023184;28;19928;-84
2021/03/16 11:09:42;;;;;;;;;;;;;;;6.55;95.98;101844.28;5021265;28;19927;-81
2021/03/16 11:12:07;;;;;;;;;;;;;;;6.61;93.34;101849.16;5034478;28;19917;-83
2021/03/16 11:14:32;;;;;;;;;;;;;;;6.63;91.80;101841.91;5018435;28;19925;-84
2021/03/16 11:16:57;;;;;;;;;;;;;;;6.78;93.98;101834.56;5012076;28;20360;-81
2021/03/16 11:19:23;;;;;;;;;;;;;;;6.78;91.09;101834.56;4989925;28;20025;-83
2021/03/16 11:21:48;;;;;;;;;;;;;;;6.92;90.18;101837.06;5009590;28;20222;-82
2021/03/16 11:24:18;;;;;;;;;;;;;;;6.97;87.62;101828.72;5025668;28;20018;-81
2021/03/16 11:26:43;;;;;;;;;;;;;;;7.15;87.37;101827.31;5043634;28;19983;-82
2021/03/16 11:29:08;;;;;;;;;;;;;;;7.38;88.82;101822.03;5010978;28;19917;-82
2021/03/16 11:31:34;;;;;;;;;;;;;;;7.38;86.09;101828.22;5002033;28;19926;-84
2021/03/16 11:33:59;;;;;;;;;;;;;;;7.38;87.77;101820.22;5017248;28;20020;-83
2021/03/16 11:36:24;;;;;;;;;;;;;;;7.38;85.55;101828.22;5019474;28;20303;-81
2021/03/16 11:38:51;;;;;;;;;;;;;;;7.33;84.88;101832.22;5017644;28;19959;-82
2021/03/16 11:41:17;;;;;;;;;;;;;;;7.37;86.12;101826.53;5018909;28;20300;-81
2021/03/16 11:43:42;;;;;;;;;;;;;;;7.42;84.03;101829.72;5025738;28;19917;-81
2021/03/16 11:46:07;;;;;;;;;;;;;;;7.42;83.92;101835.03;5028841;28;19917;-86
2021/03/16 11:48:33;;;;;;;;;;;;;;;7.43;82.97;101822.53;5019230;28;19928;-84
2021/03/16 11:50:58;;;;;;;;;;;;;;;7.41;80.42;101827.13;5005795;28;20276;-83
2021/03/16 11:53:25;;;;;;;;;;;;;;;7.41;82.07;101833.31;5021241;28;19967;-83
2021/03/16 11:55:51;;;;;;;;;;;;;;;7.41;82.32;101825.31;5022853;28;20394;-84
2021/03/16 11:58:16;;;;;;;;;;;;;;;7.38;84.24;101822.03;5018444;28;19922;-83
2021/03/16 12:00:42;;;;;;;;;;;;;;;7.29;83.97;101823.59;5020296;28;19975;-83
2021/03/16 12:03:07;;;;;;;;;;;;;;;7.29;83.29;101820.94;5018012;28;19940;-84
2021/03/16 12:05:32;;;;;;;;;;;;;;;7.30;83.13;101825.28;5037639;28;19921;-82
2021/03/16 12:07:57;;;;;;;;;;;;;;;7.26;83.54;101831.00;5022507;28;20380;-83
2021/03/16 12:10:23;;;;;;;;;;;;;;;7.18;85.06;101831.56;5019106;28;20005;-84
2021/03/16 12:12:48;;;;;;;;;;;;;;;7.16;87.11;101834.38;5001474;28;19921;-85
2021/03/16 12:15:15;;;;;;;;;;;;;;;7.13;88.28;101831.06;5021563;28;19928;-83
2021/03/16 12:17:41;;;;;;;;;;;;;;;7.16;86.95;101821.03;5019496;28;19967;-81
2021/03/16 12:20:06;;;;;;;;;;;;;;;7.21;85.50;101826.84;5007954;28;19925;-84
2021/03/16 12:22:32;;;;;;;;;;;;;;;7.27;85.91;101809.50;5009243;28;19929;-82
2021/03/16 12:24:57;;;;;;;;;;;;;;;7.37;84.01;101818.53;5011045;28;19929;-83
2021/03/16 12:27:22;;;;;;;;;;;;;;;7.30;81.67;101813.75;5002383;28;19929;-84
2021/03/16 12:29:48;;;;;;;;;;;;;;;7.32;82.52;101817.19;5004254;28;19921;-84
2021/03/16 12:32:13;;;;;;;;;;;;;;;7.24;81.66;101812.41;4993978;28;19965;-84
2021/03/16 12:34:39;;;;;;;;;;;;;;;7.33;82.65;101814.38;5001211;28;19930;-83
2021/03/16 12:37:04;;;;;;;;;;;;;;;7.33;83.03;101811.69;5003354;28;19927;-82
2021/03/16 12:39:30;;;;;;;;;;;;;;;7.31;82.26;101819.00;5018144;28;20279;-84
2021/03/16 12:41:55;;;;;;;;;;;;;;;7.36;82.76;101814.13;5015301;28;19921;-83